sensor_id;sensor_type;location;lat;lon;timestamp;P1;durP1;ratioP1;P2;durP2;ratioP2
15645;SDS011;7922;43.622;1.476;2023-04-03T00:01:48;4.53;;;3.23;;
15645;SDS011;7922;43.622;1.476;2023-04-03T00:04:14;5.17;;;3.47;;
15645;SDS011;7922;43.622;1.476;2023-04-03T00:06:39;4.30;;;3.07;;
15645;SDS011;7922;43.622;1.476;2023-04-03T00:09:04;6.33;;;3.47;;
15645;SDS011;7922;43.622;1.476;2023-04-03T00:11:30;3.33;;;3.00;;
15645;SDS011;7922;43.622;1.476;2023-04-03T00:13:55;4.97;;;3.43;;
15645;SDS011;7922;43.622;1.476;2023-04-03T00:16:20;3.97;;;3.50;;
15645;SDS011;7922;43.622;1.476;2023-04-03T00:18:46;4.13;;;3.30;;
15645;SDS011;7922;43.622;1.476;2023-04-03T00:21:12;5.33;;;3.23;;
15645;SDS011;7922;43.622;1.476;2023-04-03T00:23:38;6.03;;;2.93;;
15645;SDS011;7922;43.622;1.476;2023-04-03T00:26:03;5.03;;;3.43;;
15645;SDS011;7922;43.622;1.476;2023-04-03T00:28:28;5.13;;;3.70;;
15645;SDS011;7922;43.622;1.476;2023-04-03T00:30:54;4.97;;;3.50;;
15645;SDS011;7922;43.622;1.476;2023-04-03T00:33:19;3.50;;;3.20;;
15645;SDS011;7922;43.622;1.476;2023-04-03T00:35:44;4.17;;;3.60;;
15645;SDS011;7922;43.622;1.476;2023-04-03T00:38:09;4.10;;;3.43;;
15645;SDS011;7922;43.622;1.476;2023-04-03T00:40:36;5.73;;;3.27;;
15645;SDS011;7922;43.622;1.476;2023-04-03T00:43:05;4.47;;;3.27;;
15645;SDS011;7922;43.622;1.476;2023-04-03T00:45:40;4.53;;;3.20;;
15645;SDS011;7922;43.622;1.476;2023-04-03T00:48:08;4.67;;;3.67;;
15645;SDS011;7922;43.622;1.476;2023-04-03T00:50:37;5.43;;;3.13;;
15645;SDS011;7922;43.622;1.476;2023-04-03T00:53:06;5.43;;;3.20;;
15645;SDS011;7922;43.622;1.476;2023-04-03T00:55:34;5.03;;;3.20;;
15645;SDS011;7922;43.622;1.476;2023-04-03T00:58:01;3.70;;;2.93;;
15645;SDS011;7922;43.622;1.476;2023-04-03T01:00:27;3.43;;;3.13;;
15645;SDS011;7922;43.622;1.476;2023-04-03T01:02:53;4.60;;;3.17;;
15645;SDS011;7922;43.622;1.476;2023-04-03T01:05:19;4.23;;;3.30;;
15645;SDS011;7922;43.622;1.476;2023-04-03T01:07:46;4.07;;;2.87;;
15645;SDS011;7922;43.622;1.476;2023-04-03T01:10:14;4.40;;;3.17;;
15645;SDS011;7922;43.622;1.476;2023-04-03T01:12:42;4.20;;;3.47;;
15645;SDS011;7922;43.622;1.476;2023-04-03T01:15:20;4.30;;;3.57;;
15645;SDS011;7922;43.622;1.476;2023-04-03T01:17:55;4.63;;;3.60;;
15645;SDS011;7922;43.622;1.476;2023-04-03T01:23:33;3.67;;;3.20;;
15645;SDS011;7922;43.622;1.476;2023-04-03T01:26:19;3.50;;;2.83;;
15645;SDS011;7922;43.622;1.476;2023-04-03T01:28:44;4.87;;;3.30;;
15645;SDS011;7922;43.622;1.476;2023-04-03T01:34:00;5.07;;;3.27;;
15645;SDS011;7922;43.622;1.476;2023-04-03T01:36:27;4.60;;;3.37;;
15645;SDS011;7922;43.622;1.476;2023-04-03T01:38:54;3.97;;;3.40;;
15645;SDS011;7922;43.622;1.476;2023-04-03T01:41:20;4.57;;;3.33;;
15645;SDS011;7922;43.622;1.476;2023-04-03T01:43:46;3.97;;;3.17;;
15645;SDS011;7922;43.622;1.476;2023-04-03T01:46:12;4.23;;;3.83;;
15645;SDS011;7922;43.622;1.476;2023-04-03T01:48:38;6.03;;;3.87;;
15645;SDS011;7922;43.622;1.476;2023-04-03T01:51:03;5.00;;;3.63;;
15645;SDS011;7922;43.622;1.476;2023-04-03T01:53:29;4.70;;;3.20;;
15645;SDS011;7922;43.622;1.476;2023-04-03T01:55:54;5.93;;;4.10;;
15645;SDS011;7922;43.622;1.476;2023-04-03T01:58:19;4.37;;;3.80;;
15645;SDS011;7922;43.622;1.476;2023-04-03T02:00:45;4.47;;;3.87;;
15645;SDS011;7922;43.622;1.476;2023-04-03T02:03:10;5.93;;;3.70;;
15645;SDS011;7922;43.622;1.476;2023-04-03T02:05:35;6.20;;;4.40;;
15645;SDS011;7922;43.622;1.476;2023-04-03T02:08:01;5.23;;;3.87;;
15645;SDS011;7922;43.622;1.476;2023-04-03T02:10:26;5.17;;;4.13;;
15645;SDS011;7922;43.622;1.476;2023-04-03T02:12:51;5.27;;;4.07;;
15645;SDS011;7922;43.622;1.476;2023-04-03T02:15:17;4.87;;;4.47;;
15645;SDS011;7922;43.622;1.476;2023-04-03T02:17:42;4.10;;;3.60;;
15645;SDS011;7922;43.622;1.476;2023-04-03T02:20:08;4.37;;;3.97;;
15645;SDS011;7922;43.622;1.476;2023-04-03T02:22:34;4.37;;;3.93;;
15645;SDS011;7922;43.622;1.476;2023-04-03T02:24:59;5.23;;;4.13;;
15645;SDS011;7922;43.622;1.476;2023-04-03T02:27:24;4.57;;;4.17;;
15645;SDS011;7922;43.622;1.476;2023-04-03T02:29:49;5.70;;;4.23;;
15645;SDS011;7922;43.622;1.476;2023-04-03T02:32:15;4.97;;;3.70;;
15645;SDS011;7922;43.622;1.476;2023-04-03T02:34:40;5.53;;;4.20;;
15645;SDS011;7922;43.622;1.476;2023-04-03T02:37:05;5.43;;;3.93;;
15645;SDS011;7922;43.622;1.476;2023-04-03T02:39:31;6.47;;;4.17;;
15645;SDS011;7922;43.622;1.476;2023-04-03T02:41:56;4.83;;;4.20;;
15645;SDS011;7922;43.622;1.476;2023-04-03T02:44:21;5.10;;;4.20;;
15645;SDS011;7922;43.622;1.476;2023-04-03T02:46:47;6.47;;;4.30;;
15645;SDS011;7922;43.622;1.476;2023-04-03T02:49:12;4.60;;;4.20;;
15645;SDS011;7922;43.622;1.476;2023-04-03T02:51:37;4.70;;;3.90;;
15645;SDS011;7922;43.622;1.476;2023-04-03T02:54:02;4.93;;;4.27;;
15645;SDS011;7922;43.622;1.476;2023-04-03T02:56:28;4.77;;;4.17;;
15645;SDS011;7922;43.622;1.476;2023-04-03T02:58:53;4.60;;;3.80;;
15645;SDS011;7922;43.622;1.476;2023-04-03T03:01:18;6.43;;;4.27;;
15645;SDS011;7922;43.622;1.476;2023-04-03T03:03:44;6.13;;;4.33;;
15645;SDS011;7922;43.622;1.476;2023-04-03T03:06:11;6.33;;;4.30;;
15645;SDS011;7922;43.622;1.476;2023-04-03T03:08:38;4.13;;;3.77;;
15645;SDS011;7922;43.622;1.476;2023-04-03T03:11:03;4.10;;;3.70;;
15645;SDS011;7922;43.622;1.476;2023-04-03T03:13:29;4.67;;;4.17;;
15645;SDS011;7922;43.622;1.476;2023-04-03T03:15:55;4.93;;;4.00;;
15645;SDS011;7922;43.622;1.476;2023-04-03T03:18:20;4.97;;;4.27;;
15645;SDS011;7922;43.622;1.476;2023-04-03T03:20:46;5.17;;;4.50;;
15645;SDS011;7922;43.622;1.476;2023-04-03T03:23:11;4.67;;;4.07;;
15645;SDS011;7922;43.622;1.476;2023-04-03T03:25:39;7.73;;;4.47;;
15645;SDS011;7922;43.622;1.476;2023-04-03T03:28:05;5.10;;;4.57;;
15645;SDS011;7922;43.622;1.476;2023-04-03T03:30:31;5.03;;;4.33;;
15645;SDS011;7922;43.622;1.476;2023-04-03T03:32:57;6.00;;;4.30;;
15645;SDS011;7922;43.622;1.476;2023-04-03T03:35:22;6.47;;;5.13;;
15645;SDS011;7922;43.622;1.476;2023-04-03T03:37:47;8.87;;;4.57;;
15645;SDS011;7922;43.622;1.476;2023-04-03T03:40:12;4.90;;;4.30;;
15645;SDS011;7922;43.622;1.476;2023-04-03T03:42:38;4.90;;;4.40;;
15645;SDS011;7922;43.622;1.476;2023-04-03T03:45:03;6.23;;;5.50;;
15645;SDS011;7922;43.622;1.476;2023-04-03T03:47:29;5.37;;;4.47;;
15645;SDS011;7922;43.622;1.476;2023-04-03T03:49:54;5.57;;;4.47;;
15645;SDS011;7922;43.622;1.476;2023-04-03T03:52:20;5.40;;;4.97;;
15645;SDS011;7922;43.622;1.476;2023-04-03T03:54:45;5.10;;;4.43;;
15645;SDS011;7922;43.622;1.476;2023-04-03T03:57:10;6.13;;;4.73;;
15645;SDS011;7922;43.622;1.476;2023-04-03T03:59:35;4.93;;;4.30;;
15645;SDS011;7922;43.622;1.476;2023-04-03T04:02:01;5.63;;;4.57;;
15645;SDS011;7922;43.622;1.476;2023-04-03T04:04:26;5.63;;;4.67;;
15645;SDS011;7922;43.622;1.476;2023-04-03T04:06:51;5.80;;;5.20;;
15645;SDS011;7922;43.622;1.476;2023-04-03T04:09:17;9.20;;;4.87;;
15645;SDS011;7922;43.622;1.476;2023-04-03T04:11:42;4.90;;;4.43;;
15645;SDS011;7922;43.622;1.476;2023-04-03T04:14:07;5.23;;;4.73;;
15645;SDS011;7922;43.622;1.476;2023-04-03T04:16:32;6.17;;;4.90;;
15645;SDS011;7922;43.622;1.476;2023-04-03T04:18:58;5.10;;;4.50;;
15645;SDS011;7922;43.622;1.476;2023-04-03T04:21:23;7.40;;;4.80;;
15645;SDS011;7922;43.622;1.476;2023-04-03T04:23:48;5.10;;;4.70;;
15645;SDS011;7922;43.622;1.476;2023-04-03T04:26:14;6.50;;;4.97;;
15645;SDS011;7922;43.622;1.476;2023-04-03T04:28:39;5.40;;;4.20;;
15645;SDS011;7922;43.622;1.476;2023-04-03T04:31:04;5.13;;;4.57;;
15645;SDS011;7922;43.622;1.476;2023-04-03T04:33:30;5.80;;;4.67;;
15645;SDS011;7922;43.622;1.476;2023-04-03T04:35:55;5.07;;;4.60;;
15645;SDS011;7922;43.622;1.476;2023-04-03T04:38:20;5.57;;;5.07;;
15645;SDS011;7922;43.622;1.476;2023-04-03T04:40:46;6.80;;;5.20;;
15645;SDS011;7922;43.622;1.476;2023-04-03T04:43:12;6.10;;;4.30;;
15645;SDS011;7922;43.622;1.476;2023-04-03T04:45:37;5.80;;;4.43;;
15645;SDS011;7922;43.622;1.476;2023-04-03T04:48:03;4.93;;;4.53;;
15645;SDS011;7922;43.622;1.476;2023-04-03T04:50:28;5.07;;;4.57;;
15645;SDS011;7922;43.622;1.476;2023-04-03T04:52:53;4.63;;;4.17;;
15645;SDS011;7922;43.622;1.476;2023-04-03T04:55:19;5.00;;;4.60;;
15645;SDS011;7922;43.622;1.476;2023-04-03T04:57:44;5.77;;;4.70;;
15645;SDS011;7922;43.622;1.476;2023-04-03T05:00:09;5.63;;;4.50;;
15645;SDS011;7922;43.622;1.476;2023-04-03T05:02:35;5.77;;;4.40;;
15645;SDS011;7922;43.622;1.476;2023-04-03T05:05:01;5.67;;;5.13;;
15645;SDS011;7922;43.622;1.476;2023-04-03T05:07:26;5.10;;;4.60;;
15645;SDS011;7922;43.622;1.476;2023-04-03T05:09:51;7.30;;;5.00;;
15645;SDS011;7922;43.622;1.476;2023-04-03T05:12:16;4.80;;;4.40;;
15645;SDS011;7922;43.622;1.476;2023-04-03T05:14:42;6.20;;;5.23;;
15645;SDS011;7922;43.622;1.476;2023-04-03T05:17:07;5.63;;;5.13;;
15645;SDS011;7922;43.622;1.476;2023-04-03T05:19:32;6.93;;;5.47;;
15645;SDS011;7922;43.622;1.476;2023-04-03T05:21:58;6.60;;;5.33;;
15645;SDS011;7922;43.622;1.476;2023-04-03T05:24:23;8.03;;;5.40;;
15645;SDS011;7922;43.622;1.476;2023-04-03T05:26:48;6.30;;;5.53;;
15645;SDS011;7922;43.622;1.476;2023-04-03T05:29:13;6.30;;;5.70;;
15645;SDS011;7922;43.622;1.476;2023-04-03T05:31:39;5.80;;;5.13;;
15645;SDS011;7922;43.622;1.476;2023-04-03T05:34:04;5.77;;;5.10;;
15645;SDS011;7922;43.622;1.476;2023-04-03T05:36:29;5.77;;;5.17;;
15645;SDS011;7922;43.622;1.476;2023-04-03T05:38:55;5.80;;;5.30;;
15645;SDS011;7922;43.622;1.476;2023-04-03T05:41:20;5.90;;;5.43;;
15645;SDS011;7922;43.622;1.476;2023-04-03T05:43:45;6.23;;;5.70;;
15645;SDS011;7922;43.622;1.476;2023-04-03T05:46:11;6.20;;;5.70;;
15645;SDS011;7922;43.622;1.476;2023-04-03T05:48:38;6.53;;;5.53;;
15645;SDS011;7922;43.622;1.476;2023-04-03T05:51:05;6.33;;;5.73;;
15645;SDS011;7922;43.622;1.476;2023-04-03T05:53:32;8.47;;;6.27;;
15645;SDS011;7922;43.622;1.476;2023-04-03T05:56:00;5.90;;;5.40;;
15645;SDS011;7922;43.622;1.476;2023-04-03T05:58:25;6.23;;;4.93;;
15645;SDS011;7922;43.622;1.476;2023-04-03T06:00:50;5.90;;;5.30;;
15645;SDS011;7922;43.622;1.476;2023-04-03T06:03:16;5.50;;;5.00;;
15645;SDS011;7922;43.622;1.476;2023-04-03T06:05:41;5.83;;;5.20;;
15645;SDS011;7922;43.622;1.476;2023-04-03T06:08:06;5.60;;;5.10;;
15645;SDS011;7922;43.622;1.476;2023-04-03T06:10:32;5.87;;;5.27;;
15645;SDS011;7922;43.622;1.476;2023-04-03T06:12:57;6.33;;;5.30;;
15645;SDS011;7922;43.622;1.476;2023-04-03T06:15:22;6.30;;;5.30;;
15645;SDS011;7922;43.622;1.476;2023-04-03T06:17:48;8.37;;;5.20;;
15645;SDS011;7922;43.622;1.476;2023-04-03T06:20:13;5.53;;;5.03;;
15645;SDS011;7922;43.622;1.476;2023-04-03T06:22:39;5.83;;;5.30;;
15645;SDS011;7922;43.622;1.476;2023-04-03T06:25:04;5.33;;;4.83;;
15645;SDS011;7922;43.622;1.476;2023-04-03T06:27:30;6.63;;;5.13;;
15645;SDS011;7922;43.622;1.476;2023-04-03T06:29:55;6.57;;;5.00;;
15645;SDS011;7922;43.622;1.476;2023-04-03T06:32:21;5.03;;;4.60;;
15645;SDS011;7922;43.622;1.476;2023-04-03T06:34:46;5.27;;;4.73;;
15645;SDS011;7922;43.622;1.476;2023-04-03T06:37:15;6.27;;;4.97;;
15645;SDS011;7922;43.622;1.476;2023-04-03T06:39:42;5.47;;;4.93;;
15645;SDS011;7922;43.622;1.476;2023-04-03T06:42:07;6.60;;;5.17;;
15645;SDS011;7922;43.622;1.476;2023-04-03T06:44:33;5.13;;;4.63;;
15645;SDS011;7922;43.622;1.476;2023-04-03T06:46:58;6.10;;;5.27;;
15645;SDS011;7922;43.622;1.476;2023-04-03T06:49:23;6.90;;;4.97;;
15645;SDS011;7922;43.622;1.476;2023-04-03T06:51:48;9.03;;;5.20;;
15645;SDS011;7922;43.622;1.476;2023-04-03T06:54:14;9.03;;;5.20;;
15645;SDS011;7922;43.622;1.476;2023-04-03T06:56:39;5.20;;;4.70;;
15645;SDS011;7922;43.622;1.476;2023-04-03T06:59:04;5.67;;;4.47;;
15645;SDS011;7922;43.622;1.476;2023-04-03T07:01:29;5.63;;;4.50;;
15645;SDS011;7922;43.622;1.476;2023-04-03T07:03:55;6.67;;;5.20;;
15645;SDS011;7922;43.622;1.476;2023-04-03T07:06:21;5.63;;;4.93;;
15645;SDS011;7922;43.622;1.476;2023-04-03T07:08:46;5.37;;;4.77;;
15645;SDS011;7922;43.622;1.476;2023-04-03T07:11:12;6.43;;;4.73;;
15645;SDS011;7922;43.622;1.476;2023-04-03T07:13:38;5.30;;;4.77;;
15645;SDS011;7922;43.622;1.476;2023-04-03T07:16:04;5.33;;;4.83;;
15645;SDS011;7922;43.622;1.476;2023-04-03T07:18:30;5.77;;;5.20;;
15645;SDS011;7922;43.622;1.476;2023-04-03T07:20:55;5.37;;;4.57;;
15645;SDS011;7922;43.622;1.476;2023-04-03T07:23:21;7.77;;;4.40;;
15645;SDS011;7922;43.622;1.476;2023-04-03T07:25:47;4.60;;;4.20;;
15645;SDS011;7922;43.622;1.476;2023-04-03T07:28:14;5.87;;;4.53;;
15645;SDS011;7922;43.622;1.476;2023-04-03T07:33:09;5.80;;;5.30;;
15645;SDS011;7922;43.622;1.476;2023-04-03T07:35:34;4.60;;;4.20;;
15645;SDS011;7922;43.622;1.476;2023-04-03T07:38:00;5.57;;;4.90;;
15645;SDS011;7922;43.622;1.476;2023-04-03T07:40:25;5.50;;;4.87;;
15645;SDS011;7922;43.622;1.476;2023-04-03T07:42:50;5.20;;;4.73;;
15645;SDS011;7922;43.622;1.476;2023-04-03T07:45:16;5.70;;;4.43;;
15645;SDS011;7922;43.622;1.476;2023-04-03T07:47:41;4.80;;;4.40;;
15645;SDS011;7922;43.622;1.476;2023-04-03T07:50:06;6.00;;;4.53;;
15645;SDS011;7922;43.622;1.476;2023-04-03T07:52:32;4.80;;;4.30;;
15645;SDS011;7922;43.622;1.476;2023-04-03T07:54:57;4.50;;;4.10;;
15645;SDS011;7922;43.622;1.476;2023-04-03T07:57:23;5.00;;;4.50;;
15645;SDS011;7922;43.622;1.476;2023-04-03T07:59:48;5.27;;;4.53;;
15645;SDS011;7922;43.622;1.476;2023-04-03T08:02:13;4.67;;;4.20;;
15645;SDS011;7922;43.622;1.476;2023-04-03T08:04:38;4.67;;;4.27;;
15645;SDS011;7922;43.622;1.476;2023-04-03T08:07:04;5.10;;;3.93;;
15645;SDS011;7922;43.622;1.476;2023-04-03T08:09:29;5.73;;;4.40;;
15645;SDS011;7922;43.622;1.476;2023-04-03T08:11:55;4.57;;;4.00;;
15645;SDS011;7922;43.622;1.476;2023-04-03T08:14:20;6.90;;;4.23;;
15645;SDS011;7922;43.622;1.476;2023-04-03T08:16:46;5.60;;;4.53;;
15645;SDS011;7922;43.622;1.476;2023-04-03T08:19:13;4.53;;;4.00;;
15645;SDS011;7922;43.622;1.476;2023-04-03T08:21:41;4.80;;;3.87;;
15645;SDS011;7922;43.622;1.476;2023-04-03T08:24:07;5.47;;;4.03;;
15645;SDS011;7922;43.622;1.476;2023-04-03T08:26:33;4.87;;;4.47;;
15645;SDS011;7922;43.622;1.476;2023-04-03T08:28:58;5.83;;;4.07;;
15645;SDS011;7922;43.622;1.476;2023-04-03T08:31:23;5.00;;;4.50;;
15645;SDS011;7922;43.622;1.476;2023-04-03T08:33:48;8.23;;;4.60;;
15645;SDS011;7922;43.622;1.476;2023-04-03T08:36:21;5.33;;;4.20;;
15645;SDS011;7922;43.622;1.476;2023-04-03T08:38:50;6.53;;;4.33;;
15645;SDS011;7922;43.622;1.476;2023-04-03T08:41:19;5.43;;;4.17;;
15645;SDS011;7922;43.622;1.476;2023-04-03T08:46:51;4.23;;;3.53;;
15645;SDS011;7922;43.622;1.476;2023-04-03T08:49:25;6.00;;;3.47;;
15645;SDS011;7922;43.622;1.476;2023-04-03T08:51:55;4.87;;;3.30;;
15645;SDS011;7922;43.622;1.476;2023-04-03T08:54:27;4.10;;;3.70;;
15645;SDS011;7922;43.622;1.476;2023-04-03T08:56:57;3.90;;;3.50;;
15645;SDS011;7922;43.622;1.476;2023-04-03T08:59:29;4.20;;;3.47;;
15645;SDS011;7922;43.622;1.476;2023-04-03T09:01:59;4.60;;;4.00;;
15645;SDS011;7922;43.622;1.476;2023-04-03T09:04:28;3.83;;;3.40;;
15645;SDS011;7922;43.622;1.476;2023-04-03T09:06:57;3.73;;;3.23;;
15645;SDS011;7922;43.622;1.476;2023-04-03T09:09:35;5.87;;;3.10;;
15645;SDS011;7922;43.622;1.476;2023-04-03T09:20:29;4.07;;;3.57;;
15645;SDS011;7922;43.622;1.476;2023-04-03T09:23:15;3.60;;;3.30;;
15645;SDS011;7922;43.622;1.476;2023-04-03T09:25:45;3.37;;;2.83;;
15645;SDS011;7922;43.622;1.476;2023-04-03T09:28:11;3.33;;;2.70;;
15645;SDS011;7922;43.622;1.476;2023-04-03T09:30:36;3.50;;;2.93;;
15645;SDS011;7922;43.622;1.476;2023-04-03T09:33:02;4.03;;;2.60;;
15645;SDS011;7922;43.622;1.476;2023-04-03T09:35:31;3.83;;;2.90;;
15645;SDS011;7922;43.622;1.476;2023-04-03T09:38:00;5.63;;;2.87;;
15645;SDS011;7922;43.622;1.476;2023-04-03T09:42:52;3.10;;;2.73;;
15645;SDS011;7922;43.622;1.476;2023-04-03T09:45:33;5.30;;;2.87;;
15645;SDS011;7922;43.622;1.476;2023-04-03T09:50:37;3.40;;;2.13;;
15645;SDS011;7922;43.622;1.476;2023-04-03T09:53:05;4.33;;;2.73;;
15645;SDS011;7922;43.622;1.476;2023-04-03T09:55:49;5.00;;;2.43;;
15645;SDS011;7922;43.622;1.476;2023-04-03T09:58:48;3.90;;;2.53;;
15645;SDS011;7922;43.622;1.476;2023-04-03T10:01:19;4.70;;;2.63;;
15645;SDS011;7922;43.622;1.476;2023-04-03T10:04:09;5.67;;;2.83;;
15645;SDS011;7922;43.622;1.476;2023-04-03T10:06:45;5.00;;;2.80;;
15645;SDS011;7922;43.622;1.476;2023-04-03T10:09:19;3.07;;;2.40;;
15645;SDS011;7922;43.622;1.476;2023-04-03T10:11:56;4.90;;;2.50;;
15645;SDS011;7922;43.622;1.476;2023-04-03T10:14:24;3.47;;;2.27;;
15645;SDS011;7922;43.622;1.476;2023-04-03T10:19:45;3.80;;;2.50;;
15645;SDS011;7922;43.622;1.476;2023-04-03T10:22:20;2.50;;;2.20;;
15645;SDS011;7922;43.622;1.476;2023-04-03T10:25:01;2.60;;;2.40;;
15645;SDS011;7922;43.622;1.476;2023-04-03T10:27:42;6.17;;;2.83;;
15645;SDS011;7922;43.622;1.476;2023-04-03T10:35:37;6.77;;;2.57;;
15645;SDS011;7922;43.622;1.476;2023-04-03T10:43:38;4.23;;;2.07;;
15645;SDS011;7922;43.622;1.476;2023-04-03T10:46:15;3.60;;;2.17;;
15645;SDS011;7922;43.622;1.476;2023-04-03T10:48:54;2.87;;;2.10;;
15645;SDS011;7922;43.622;1.476;2023-04-03T10:54:24;2.13;;;1.90;;
15645;SDS011;7922;43.622;1.476;2023-04-03T10:56:52;3.30;;;2.00;;
15645;SDS011;7922;43.622;1.476;2023-04-03T10:59:56;3.20;;;2.00;;
15645;SDS011;7922;43.622;1.476;2023-04-03T11:02:23;2.20;;;1.50;;
15645;SDS011;7922;43.622;1.476;2023-04-03T11:04:56;2.13;;;1.93;;
15645;SDS011;7922;43.622;1.476;2023-04-03T11:07:26;2.93;;;1.70;;
15645;SDS011;7922;43.622;1.476;2023-04-03T11:09:59;2.40;;;1.50;;
15645;SDS011;7922;43.622;1.476;2023-04-03T11:14:59;2.77;;;1.93;;
15645;SDS011;7922;43.622;1.476;2023-04-03T11:17:35;2.47;;;1.80;;
15645;SDS011;7922;43.622;1.476;2023-04-03T11:20:28;2.57;;;1.80;;
15645;SDS011;7922;43.622;1.476;2023-04-03T11:22:57;4.17;;;1.53;;
15645;SDS011;7922;43.622;1.476;2023-04-03T11:25:27;2.00;;;1.43;;
15645;SDS011;7922;43.622;1.476;2023-04-03T11:27:55;1.80;;;1.33;;
15645;SDS011;7922;43.622;1.476;2023-04-03T11:35:30;1.20;;;1.10;;
15645;SDS011;7922;43.622;1.476;2023-04-03T11:37:57;3.23;;;2.10;;
15645;SDS011;7922;43.622;1.476;2023-04-03T11:40:26;2.73;;;1.60;;
15645;SDS011;7922;43.622;1.476;2023-04-03T11:53:39;2.70;;;1.77;;
15645;SDS011;7922;43.622;1.476;2023-04-03T12:05:38;2.00;;;1.80;;
15645;SDS011;7922;43.622;1.476;2023-04-03T12:14:16;2.93;;;1.90;;
15645;SDS011;7922;43.622;1.476;2023-04-03T12:18:56;2.40;;;1.90;;
15645;SDS011;7922;43.622;1.476;2023-04-03T12:21:23;2.30;;;1.40;;
15645;SDS011;7922;43.622;1.476;2023-04-03T12:27:03;4.27;;;2.00;;
15645;SDS011;7922;43.622;1.476;2023-04-03T12:45:45;1.97;;;1.50;;
15645;SDS011;7922;43.622;1.476;2023-04-03T12:48:17;2.47;;;1.80;;
15645;SDS011;7922;43.622;1.476;2023-04-03T12:50:47;2.80;;;1.90;;
15645;SDS011;7922;43.622;1.476;2023-04-03T12:53:18;4.00;;;2.40;;
15645;SDS011;7922;43.622;1.476;2023-04-03T12:55:53;4.27;;;2.07;;
15645;SDS011;7922;43.622;1.476;2023-04-03T12:58:23;3.53;;;2.00;;
15645;SDS011;7922;43.622;1.476;2023-04-03T13:01:00;3.00;;;1.77;;
15645;SDS011;7922;43.622;1.476;2023-04-03T13:03:26;2.77;;;1.93;;
15645;SDS011;7922;43.622;1.476;2023-04-03T13:05:52;1.80;;;1.50;;
15645;SDS011;7922;43.622;1.476;2023-04-03T13:08:23;2.13;;;1.40;;
15645;SDS011;7922;43.622;1.476;2023-04-03T13:10:56;3.27;;;1.70;;
15645;SDS011;7922;43.622;1.476;2023-04-03T13:13:26;3.07;;;1.77;;
15645;SDS011;7922;43.622;1.476;2023-04-03T13:15:53;4.27;;;1.90;;
15645;SDS011;7922;43.622;1.476;2023-04-03T13:18:32;4.33;;;2.07;;
15645;SDS011;7922;43.622;1.476;2023-04-03T13:21:20;2.63;;;1.80;;
15645;SDS011;7922;43.622;1.476;2023-04-03T13:23:50;4.23;;;2.00;;
15645;SDS011;7922;43.622;1.476;2023-04-03T13:26:18;2.33;;;2.00;;
15645;SDS011;7922;43.622;1.476;2023-04-03T13:28:47;3.20;;;1.70;;
15645;SDS011;7922;43.622;1.476;2023-04-03T13:33:38;4.57;;;2.20;;
15645;SDS011;7922;43.622;1.476;2023-04-03T13:36:05;2.47;;;1.70;;
15645;SDS011;7922;43.622;1.476;2023-04-03T13:38:42;3.07;;;1.77;;
15645;SDS011;7922;43.622;1.476;2023-04-03T13:46:45;3.50;;;1.90;;
15645;SDS011;7922;43.622;1.476;2023-04-03T13:49:21;3.73;;;1.77;;
15645;SDS011;7922;43.622;1.476;2023-04-03T13:51:47;2.30;;;1.77;;
15645;SDS011;7922;43.622;1.476;2023-04-03T13:54:21;2.00;;;1.80;;
15645;SDS011;7922;43.622;1.476;2023-04-03T13:56:54;3.50;;;2.00;;
15645;SDS011;7922;43.622;1.476;2023-04-03T13:59:23;3.53;;;2.20;;
15645;SDS011;7922;43.622;1.476;2023-04-03T14:04:24;2.67;;;1.80;;
15645;SDS011;7922;43.622;1.476;2023-04-03T14:06:51;4.10;;;1.67;;
15645;SDS011;7922;43.622;1.476;2023-04-03T14:09:18;2.03;;;1.50;;
15645;SDS011;7922;43.622;1.476;2023-04-03T14:11:45;2.40;;;1.60;;
15645;SDS011;7922;43.622;1.476;2023-04-03T14:14:16;2.97;;;2.00;;
15645;SDS011;7922;43.622;1.476;2023-04-03T14:16:48;3.10;;;2.03;;
15645;SDS011;7922;43.622;1.476;2023-04-03T14:19:22;3.63;;;1.90;;
15645;SDS011;7922;43.622;1.476;2023-04-03T14:21:50;3.50;;;2.00;;
15645;SDS011;7922;43.622;1.476;2023-04-03T14:24:17;2.90;;;1.90;;
15645;SDS011;7922;43.622;1.476;2023-04-03T14:26:43;2.97;;;1.90;;
15645;SDS011;7922;43.622;1.476;2023-04-03T14:29:09;2.47;;;1.87;;
15645;SDS011;7922;43.622;1.476;2023-04-03T14:31:35;3.00;;;1.70;;
15645;SDS011;7922;43.622;1.476;2023-04-03T14:34:00;3.30;;;2.00;;
15645;SDS011;7922;43.622;1.476;2023-04-03T14:36:26;4.23;;;1.90;;
15645;SDS011;7922;43.622;1.476;2023-04-03T14:38:53;1.93;;;1.70;;
15645;SDS011;7922;43.622;1.476;2023-04-03T14:41:21;2.63;;;2.00;;
15645;SDS011;7922;43.622;1.476;2023-04-03T14:43:48;3.90;;;2.50;;
15645;SDS011;7922;43.622;1.476;2023-04-03T14:46:15;2.13;;;1.67;;
15645;SDS011;7922;43.622;1.476;2023-04-03T14:48:43;2.73;;;2.00;;
15645;SDS011;7922;43.622;1.476;2023-04-03T14:51:12;3.00;;;2.07;;
15645;SDS011;7922;43.622;1.476;2023-04-03T14:53:40;4.47;;;2.30;;
15645;SDS011;7922;43.622;1.476;2023-04-03T14:58:37;2.43;;;2.10;;
15645;SDS011;7922;43.622;1.476;2023-04-03T15:01:03;3.20;;;2.07;;
15645;SDS011;7922;43.622;1.476;2023-04-03T15:03:28;4.97;;;2.37;;
15645;SDS011;7922;43.622;1.476;2023-04-03T15:05:53;3.00;;;2.00;;
15645;SDS011;7922;43.622;1.476;2023-04-03T15:08:22;4.50;;;2.40;;
15645;SDS011;7922;43.622;1.476;2023-04-03T15:10:50;4.33;;;2.43;;
15645;SDS011;7922;43.622;1.476;2023-04-03T15:13:17;3.80;;;2.13;;
15645;SDS011;7922;43.622;1.476;2023-04-03T15:15:42;3.27;;;2.00;;
15645;SDS011;7922;43.622;1.476;2023-04-03T15:18:10;4.20;;;1.90;;
15645;SDS011;7922;43.622;1.476;2023-04-03T15:20:57;5.20;;;1.97;;
15645;SDS011;7922;43.622;1.476;2023-04-03T15:23:22;4.43;;;2.10;;
15645;SDS011;7922;43.622;1.476;2023-04-03T15:25:47;5.10;;;2.10;;
15645;SDS011;7922;43.622;1.476;2023-04-03T15:28:33;3.20;;;1.97;;
15645;SDS011;7922;43.622;1.476;2023-04-03T15:31:01;2.77;;;1.97;;
15645;SDS011;7922;43.622;1.476;2023-04-03T15:33:27;3.57;;;2.03;;
15645;SDS011;7922;43.622;1.476;2023-04-03T15:35:52;2.80;;;1.80;;
15645;SDS011;7922;43.622;1.476;2023-04-03T15:38:18;2.00;;;1.70;;
15645;SDS011;7922;43.622;1.476;2023-04-03T15:40:43;2.00;;;1.57;;
15645;SDS011;7922;43.622;1.476;2023-04-03T15:43:09;3.13;;;1.80;;
15645;SDS011;7922;43.622;1.476;2023-04-03T15:45:35;3.43;;;1.97;;
15645;SDS011;7922;43.622;1.476;2023-04-03T15:48:02;2.80;;;1.77;;
15645;SDS011;7922;43.622;1.476;2023-04-03T15:50:29;2.70;;;1.83;;
15645;SDS011;7922;43.622;1.476;2023-04-03T15:52:54;4.87;;;2.20;;
15645;SDS011;7922;43.622;1.476;2023-04-03T15:55:26;5.37;;;2.00;;
15645;SDS011;7922;43.622;1.476;2023-04-03T15:57:56;2.30;;;2.10;;
15645;SDS011;7922;43.622;1.476;2023-04-03T16:00:22;2.73;;;1.90;;
15645;SDS011;7922;43.622;1.476;2023-04-03T16:02:50;2.40;;;1.67;;
15645;SDS011;7922;43.622;1.476;2023-04-03T16:05:29;3.23;;;1.80;;
15645;SDS011;7922;43.622;1.476;2023-04-03T16:07:54;2.70;;;1.70;;
15645;SDS011;7922;43.622;1.476;2023-04-03T16:10:20;3.03;;;1.70;;
15645;SDS011;7922;43.622;1.476;2023-04-03T16:12:46;2.63;;;1.47;;
15645;SDS011;7922;43.622;1.476;2023-04-03T16:15:11;2.73;;;2.00;;
15645;SDS011;7922;43.622;1.476;2023-04-03T16:17:37;3.07;;;1.90;;
15645;SDS011;7922;43.622;1.476;2023-04-03T16:20:05;2.63;;;1.80;;
15645;SDS011;7922;43.622;1.476;2023-04-03T16:22:32;3.50;;;1.90;;
15645;SDS011;7922;43.622;1.476;2023-04-03T16:24:57;2.23;;;2.03;;
15645;SDS011;7922;43.622;1.476;2023-04-03T16:27:23;2.50;;;2.00;;
15645;SDS011;7922;43.622;1.476;2023-04-03T16:29:48;3.43;;;1.90;;
15645;SDS011;7922;43.622;1.476;2023-04-03T16:32:14;3.70;;;1.90;;
15645;SDS011;7922;43.622;1.476;2023-04-03T16:34:39;2.93;;;1.87;;
15645;SDS011;7922;43.622;1.476;2023-04-03T16:37:05;2.83;;;1.77;;
15645;SDS011;7922;43.622;1.476;2023-04-03T16:39:31;3.07;;;1.70;;
15645;SDS011;7922;43.622;1.476;2023-04-03T16:41:56;2.43;;;1.70;;
15645;SDS011;7922;43.622;1.476;2023-04-03T16:44:21;1.80;;;1.70;;
15645;SDS011;7922;43.622;1.476;2023-04-03T16:46:47;3.33;;;2.00;;
15645;SDS011;7922;43.622;1.476;2023-04-03T16:49:12;2.27;;;2.07;;
15645;SDS011;7922;43.622;1.476;2023-04-03T16:51:37;3.67;;;2.50;;
15645;SDS011;7922;43.622;1.476;2023-04-03T16:54:03;2.23;;;1.70;;